sensor_id;sensor_type;location;lat;lon;timestamp;P1;durP1;ratioP1;P2;durP2;ratioP2
44000;SDS011;29660;42.892;24.710;2022-11-14T00:04:15;46.63;;;34.45;;
44000;SDS011;29660;42.892;24.710;2022-11-14T00:09:36;45.78;;;32.65;;
44000;SDS011;29660;42.892;24.710;2022-11-14T00:14:57;46.15;;;30.55;;
44000;SDS011;29660;42.892;24.710;2022-11-14T00:20:18;32.55;;;21.70;;
44000;SDS011;29660;42.892;24.710;2022-11-14T00:25:39;29.25;;;20.55;;
44000;SDS011;29660;42.892;24.710;2022-11-14T00:31:00;26.20;;;18.92;;
44000;SDS011;29660;42.892;24.710;2022-11-14T00:36:21;29.23;;;20.45;;
44000;SDS011;29660;42.892;24.710;2022-11-14T00:41:41;29.27;;;20.27;;
44000;SDS011;29660;42.892;24.710;2022-11-14T00:47:02;38.42;;;24.15;;
44000;SDS011;29660;42.892;24.710;2022-11-14T00:52:23;32.08;;;22.30;;
44000;SDS011;29660;42.892;24.710;2022-11-14T00:57:43;34.63;;;22.88;;
44000;SDS011;29660;42.892;24.710;2022-11-14T01:03:04;27.63;;;19.58;;
44000;SDS011;29660;42.892;24.710;2022-11-14T01:08:24;30.05;;;19.65;;
44000;SDS011;29660;42.892;24.710;2022-11-14T01:13:45;29.95;;;18.85;;
44000;SDS011;29660;42.892;24.710;2022-11-14T01:19:06;29.48;;;18.90;;
44000;SDS011;29660;42.892;24.710;2022-11-14T01:24:27;31.42;;;21.30;;
44000;SDS011;29660;42.892;24.710;2022-11-14T01:29:47;30.65;;;20.77;;
44000;SDS011;29660;42.892;24.710;2022-11-14T01:35:07;24.85;;;19.08;;
44000;SDS011;29660;42.892;24.710;2022-11-14T01:40:28;31.40;;;23.33;;
44000;SDS011;29660;42.892;24.710;2022-11-14T01:51:28;43.00;;;24.88;;
44000;SDS011;29660;42.892;24.710;2022-11-14T01:56:54;30.95;;;19.98;;
44000;SDS011;29660;42.892;24.710;2022-11-14T02:02:19;48.10;;;33.78;;
44000;SDS011;29660;42.892;24.710;2022-11-14T02:07:41;40.72;;;28.40;;
44000;SDS011;29660;42.892;24.710;2022-11-14T02:13:01;36.78;;;24.00;;
44000;SDS011;29660;42.892;24.710;2022-11-14T02:18:21;30.25;;;20.55;;
44000;SDS011;29660;42.892;24.710;2022-11-14T02:23:42;26.48;;;18.70;;
44000;SDS011;29660;42.892;24.710;2022-11-14T02:29:02;28.33;;;20.52;;
44000;SDS011;29660;42.892;24.710;2022-11-14T02:34:24;29.58;;;17.42;;
44000;SDS011;29660;42.892;24.710;2022-11-14T02:39:45;27.67;;;18.98;;
44000;SDS011;29660;42.892;24.710;2022-11-14T02:45:05;33.03;;;21.73;;
44000;SDS011;29660;42.892;24.710;2022-11-14T02:50:27;26.50;;;17.23;;
44000;SDS011;29660;42.892;24.710;2022-11-14T02:55:47;33.30;;;20.40;;
44000;SDS011;29660;42.892;24.710;2022-11-14T03:01:07;25.33;;;17.77;;
44000;SDS011;29660;42.892;24.710;2022-11-14T03:06:43;22.27;;;16.15;;
44000;SDS011;29660;42.892;24.710;2022-11-14T03:12:03;24.67;;;17.00;;
44000;SDS011;29660;42.892;24.710;2022-11-14T03:17:24;26.05;;;18.17;;
44000;SDS011;29660;42.892;24.710;2022-11-14T03:22:44;27.55;;;19.02;;
44000;SDS011;29660;42.892;24.710;2022-11-14T03:28:04;34.25;;;20.73;;
44000;SDS011;29660;42.892;24.710;2022-11-14T03:33:25;28.90;;;21.67;;
44000;SDS011;29660;42.892;24.710;2022-11-14T03:38:45;26.67;;;18.60;;
44000;SDS011;29660;42.892;24.710;2022-11-14T03:44:06;29.38;;;20.55;;
44000;SDS011;29660;42.892;24.710;2022-11-14T03:55:11;29.35;;;20.33;;
44000;SDS011;29660;42.892;24.710;2022-11-14T04:00:32;38.67;;;23.92;;
44000;SDS011;29660;42.892;24.710;2022-11-14T04:05:52;33.97;;;21.85;;
44000;SDS011;29660;42.892;24.710;2022-11-14T04:11:12;29.85;;;19.50;;
44000;SDS011;29660;42.892;24.710;2022-11-14T04:16:33;30.08;;;18.30;;
44000;SDS011;29660;42.892;24.710;2022-11-14T04:21:53;36.63;;;22.48;;
44000;SDS011;29660;42.892;24.710;2022-11-14T04:27:14;51.95;;;33.42;;
44000;SDS011;29660;42.892;24.710;2022-11-14T04:32:34;50.42;;;33.67;;
44000;SDS011;29660;42.892;24.710;2022-11-14T04:37:54;212.18;;;161.77;;
44000;SDS011;29660;42.892;24.710;2022-11-14T04:43:15;68.28;;;49.53;;
44000;SDS011;29660;42.892;24.710;2022-11-14T04:48:35;41.97;;;29.58;;
44000;SDS011;29660;42.892;24.710;2022-11-14T04:53:56;35.03;;;24.45;;
44000;SDS011;29660;42.892;24.710;2022-11-14T04:59:16;29.77;;;23.33;;
44000;SDS011;29660;42.892;24.710;2022-11-14T05:04:39;29.98;;;21.77;;
44000;SDS011;29660;42.892;24.710;2022-11-14T05:10:00;34.60;;;20.90;;
44000;SDS011;29660;42.892;24.710;2022-11-14T05:15:20;92.38;;;67.45;;
44000;SDS011;29660;42.892;24.710;2022-11-14T05:20:40;74.75;;;57.05;;
44000;SDS011;29660;42.892;24.710;2022-11-14T05:26:02;77.95;;;58.60;;
44000;SDS011;29660;42.892;24.710;2022-11-14T05:31:23;80.82;;;57.10;;
44000;SDS011;29660;42.892;24.710;2022-11-14T05:36:43;26.48;;;17.25;;
44000;SDS011;29660;42.892;24.710;2022-11-14T05:42:03;26.83;;;16.67;;
44000;SDS011;29660;42.892;24.710;2022-11-14T05:47:25;27.52;;;16.80;;
44000;SDS011;29660;42.892;24.710;2022-11-14T05:52:45;34.90;;;23.20;;
44000;SDS011;29660;42.892;24.710;2022-11-14T05:58:05;63.42;;;44.67;;
44000;SDS011;29660;42.892;24.710;2022-11-14T06:03:28;62.92;;;42.88;;
44000;SDS011;29660;42.892;24.710;2022-11-14T06:08:51;47.40;;;30.20;;
44000;SDS011;29660;42.892;24.710;2022-11-14T06:14:12;42.50;;;27.42;;
44000;SDS011;29660;42.892;24.710;2022-11-14T06:19:32;53.15;;;35.50;;
44000;SDS011;29660;42.892;24.710;2022-11-14T06:24:52;69.40;;;47.15;;
44000;SDS011;29660;42.892;24.710;2022-11-14T06:30:12;65.57;;;44.35;;
44000;SDS011;29660;42.892;24.710;2022-11-14T06:35:33;64.70;;;45.97;;
44000;SDS011;29660;42.892;24.710;2022-11-14T06:41:01;58.08;;;42.33;;
44000;SDS011;29660;42.892;24.710;2022-11-14T06:46:22;51.00;;;39.50;;
44000;SDS011;29660;42.892;24.710;2022-11-14T06:51:43;64.22;;;43.10;;
44000;SDS011;29660;42.892;24.710;2022-11-14T06:57:03;72.50;;;50.53;;
44000;SDS011;29660;42.892;24.710;2022-11-14T07:02:25;76.57;;;52.15;;
44000;SDS011;29660;42.892;24.710;2022-11-14T07:07:45;78.38;;;52.97;;
44000;SDS011;29660;42.892;24.710;2022-11-14T07:13:05;77.25;;;51.83;;
44000;SDS011;29660;42.892;24.710;2022-11-14T07:18:25;96.15;;;68.70;;
44000;SDS011;29660;42.892;24.710;2022-11-14T07:23:48;96.05;;;71.32;;
44000;SDS011;29660;42.892;24.710;2022-11-14T07:29:09;84.40;;;55.40;;
44000;SDS011;29660;42.892;24.710;2022-11-14T07:34:29;74.10;;;52.75;;
44000;SDS011;29660;42.892;24.710;2022-11-14T07:39:49;63.58;;;46.38;;
44000;SDS011;29660;42.892;24.710;2022-11-14T07:45:10;52.72;;;39.90;;
44000;SDS011;29660;42.892;24.710;2022-11-14T07:50:30;46.60;;;31.63;;
44000;SDS011;29660;42.892;24.710;2022-11-14T07:55:51;36.42;;;28.38;;
44000;SDS011;29660;42.892;24.710;2022-11-14T08:01:11;51.20;;;33.55;;
44000;SDS011;29660;42.892;24.710;2022-11-14T08:06:33;47.40;;;34.92;;
44000;SDS011;29660;42.892;24.710;2022-11-14T08:11:54;49.40;;;32.88;;
44000;SDS011;29660;42.892;24.710;2022-11-14T08:17:14;46.40;;;34.47;;
44000;SDS011;29660;42.892;24.710;2022-11-14T08:22:34;26.35;;;20.23;;
44000;SDS011;29660;42.892;24.710;2022-11-14T08:27:55;35.20;;;24.38;;
44000;SDS011;29660;42.892;24.710;2022-11-14T08:33:15;31.90;;;23.23;;
44000;SDS011;29660;42.892;24.710;2022-11-14T08:38:35;35.67;;;22.73;;
44000;SDS011;29660;42.892;24.710;2022-11-14T08:43:56;20.33;;;14.52;;
44000;SDS011;29660;42.892;24.710;2022-11-14T08:49:16;18.77;;;12.23;;
44000;SDS011;29660;42.892;24.710;2022-11-14T08:54:37;20.50;;;13.95;;
44000;SDS011;29660;42.892;24.710;2022-11-14T08:59:57;18.80;;;12.35;;
44000;SDS011;29660;42.892;24.710;2022-11-14T09:05:18;25.08;;;15.98;;
44000;SDS011;29660;42.892;24.710;2022-11-14T09:10:39;34.28;;;20.95;;
44000;SDS011;29660;42.892;24.710;2022-11-14T09:15:59;30.48;;;17.58;;
44000;SDS011;29660;42.892;24.710;2022-11-14T09:21:20;22.65;;;13.95;;
44000;SDS011;29660;42.892;24.710;2022-11-14T09:26:41;24.98;;;13.82;;
44000;SDS011;29660;42.892;24.710;2022-11-14T09:32:01;15.25;;;11.30;;
44000;SDS011;29660;42.892;24.710;2022-11-14T09:37:21;14.93;;;10.63;;
44000;SDS011;29660;42.892;24.710;2022-11-14T09:48:22;35.40;;;20.52;;
44000;SDS011;29660;42.892;24.710;2022-11-14T09:54:06;20.60;;;14.77;;
44000;SDS011;29660;42.892;24.710;2022-11-14T09:59:43;15.45;;;12.25;;
44000;SDS011;29660;42.892;24.710;2022-11-14T10:38:55;12.95;;;10.35;;
44000;SDS011;29660;42.892;24.710;2022-11-14T10:44:28;14.63;;;10.02;;
44000;SDS011;29660;42.892;24.710;2022-11-14T10:49:53;13.88;;;9.50;;
44000;SDS011;29660;42.892;24.710;2022-11-14T10:55:19;12.10;;;9.45;;
44000;SDS011;29660;42.892;24.710;2022-11-14T11:12:48;10.82;;;9.07;;
44000;SDS011;29660;42.892;24.710;2022-11-14T11:18:23;13.25;;;9.55;;
44000;SDS011;29660;42.892;24.710;2022-11-14T11:23:48;11.55;;;9.38;;
44000;SDS011;29660;42.892;24.710;2022-11-14T11:29:14;12.68;;;9.07;;
44000;SDS011;29660;42.892;24.710;2022-11-14T11:34:37;11.15;;;9.15;;
44000;SDS011;29660;42.892;24.710;2022-11-14T11:39:59;19.05;;;13.30;;
44000;SDS011;29660;42.892;24.710;2022-11-14T11:45:24;11.10;;;8.73;;
44000;SDS011;29660;42.892;24.710;2022-11-14T11:50:46;13.55;;;9.75;;
44000;SDS011;29660;42.892;24.710;2022-11-14T11:56:15;10.23;;;8.88;;
44000;SDS011;29660;42.892;24.710;2022-11-14T12:01:40;13.15;;;11.45;;
44000;SDS011;29660;42.892;24.710;2022-11-14T12:07:08;10.45;;;9.05;;
44000;SDS011;29660;42.892;24.710;2022-11-14T12:24:00;13.25;;;10.63;;
44000;SDS011;29660;42.892;24.710;2022-11-14T12:29:44;11.45;;;9.70;;
44000;SDS011;29660;42.892;24.710;2022-11-14T12:35:13;10.38;;;9.27;;
44000;SDS011;29660;42.892;24.710;2022-11-14T12:40:46;11.70;;;10.50;;
44000;SDS011;29660;42.892;24.710;2022-11-14T12:46:12;11.30;;;8.38;;
44000;SDS011;29660;42.892;24.710;2022-11-14T12:56:57;12.43;;;9.15;;
44000;SDS011;29660;42.892;24.710;2022-11-14T13:13:58;11.95;;;9.90;;
44000;SDS011;29660;42.892;24.710;2022-11-14T13:19:45;10.48;;;9.18;;
44000;SDS011;29660;42.892;24.710;2022-11-14T13:25:35;10.82;;;9.55;;
44000;SDS011;29660;42.892;24.710;2022-11-14T13:36:36;12.32;;;11.02;;
44000;SDS011;29660;42.892;24.710;2022-11-14T13:42:05;19.23;;;14.82;;
44000;SDS011;29660;42.892;24.710;2022-11-14T13:53:00;12.63;;;11.32;;
44000;SDS011;29660;42.892;24.710;2022-11-14T13:58:34;13.07;;;11.52;;
44000;SDS011;29660;42.892;24.710;2022-11-14T14:10:49;20.27;;;16.42;;
44000;SDS011;29660;42.892;24.710;2022-11-14T14:27:54;26.35;;;18.83;;
44000;SDS011;29660;42.892;24.710;2022-11-14T14:33:42;22.10;;;18.20;;
44000;SDS011;29660;42.892;24.710;2022-11-14T14:39:17;21.48;;;18.23;;
44000;SDS011;29660;42.892;24.710;2022-11-14T14:44:40;27.83;;;20.85;;
44000;SDS011;29660;42.892;24.710;2022-11-14T14:50:04;33.85;;;26.02;;
44000;SDS011;29660;42.892;24.710;2022-11-14T14:55:33;30.60;;;22.95;;
44000;SDS011;29660;42.892;24.710;2022-11-14T15:00:57;36.08;;;31.95;;
44000;SDS011;29660;42.892;24.710;2022-11-14T15:11:50;85.00;;;61.65;;
44000;SDS011;29660;42.892;24.710;2022-11-14T15:17:17;55.38;;;43.20;;
44000;SDS011;29660;42.892;24.710;2022-11-14T15:22:38;52.22;;;41.20;;
44000;SDS011;29660;42.892;24.710;2022-11-14T15:27:58;47.25;;;37.42;;
44000;SDS011;29660;42.892;24.710;2022-11-14T15:33:29;56.53;;;41.40;;
44000;SDS011;29660;42.892;24.710;2022-11-14T15:38:58;55.78;;;42.25;;
44000;SDS011;29660;42.892;24.710;2022-11-14T15:44:34;62.10;;;40.72;;
44000;SDS011;29660;42.892;24.710;2022-11-14T15:50:01;74.82;;;41.95;;
44000;SDS011;29660;42.892;24.710;2022-11-14T15:55:30;90.15;;;67.30;;
44000;SDS011;29660;42.892;24.710;2022-11-14T16:00:51;75.05;;;40.13;;
44000;SDS011;29660;42.892;24.710;2022-11-14T16:06:13;46.10;;;36.83;;
44000;SDS011;29660;42.892;24.710;2022-11-14T16:11:33;168.75;;;97.20;;
44000;SDS011;29660;42.892;24.710;2022-11-14T16:19:59;187.13;;;135.77;;
44000;SDS011;29660;42.892;24.710;2022-11-14T16:25:20;49.88;;;40.47;;
44000;SDS011;29660;42.892;24.710;2022-11-14T16:30:45;148.75;;;96.15;;
44000;SDS011;29660;42.892;24.710;2022-11-14T16:36:05;69.47;;;51.17;;
44000;SDS011;29660;42.892;24.710;2022-11-14T16:41:26;71.43;;;56.90;;
44000;SDS011;29660;42.892;24.710;2022-11-14T16:46:46;84.65;;;64.90;;
44000;SDS011;29660;42.892;24.710;2022-11-14T16:52:08;95.95;;;72.15;;
44000;SDS011;29660;42.892;24.710;2022-11-14T17:00:58;73.85;;;57.88;;
44000;SDS011;29660;42.892;24.710;2022-11-14T17:06:19;69.43;;;53.80;;
44000;SDS011;29660;42.892;24.710;2022-11-14T17:11:39;59.95;;;46.60;;
44000;SDS011;29660;42.892;24.710;2022-11-14T17:17:00;57.42;;;46.63;;
44000;SDS011;29660;42.892;24.710;2022-11-14T17:22:23;69.60;;;51.30;;
44000;SDS011;29660;42.892;24.710;2022-11-14T17:27:43;58.30;;;43.25;;
44000;SDS011;29660;42.892;24.710;2022-11-14T17:33:07;68.40;;;52.45;;
44000;SDS011;29660;42.892;24.710;2022-11-14T17:38:30;72.03;;;52.75;;
44000;SDS011;29660;42.892;24.710;2022-11-14T17:43:55;79.22;;;55.53;;
44000;SDS011;29660;42.892;24.710;2022-11-14T17:49:17;78.03;;;56.33;;
44000;SDS011;29660;42.892;24.710;2022-11-14T17:54:37;95.03;;;70.15;;
44000;SDS011;29660;42.892;24.710;2022-11-14T17:59:57;76.80;;;60.08;;
44000;SDS011;29660;42.892;24.710;2022-11-14T18:05:18;59.08;;;46.35;;
44000;SDS011;29660;42.892;24.710;2022-11-14T18:10:38;57.40;;;43.20;;
44000;SDS011;29660;42.892;24.710;2022-11-14T18:16:20;59.00;;;43.08;;
44000;SDS011;29660;42.892;24.710;2022-11-14T18:21:39;69.60;;;42.83;;
44000;SDS011;29660;42.892;24.710;2022-11-14T18:27:02;79.28;;;47.40;;
44000;SDS011;29660;42.892;24.710;2022-11-14T18:32:22;75.18;;;45.35;;
44000;SDS011;29660;42.892;24.710;2022-11-14T18:37:43;82.65;;;51.22;;
44000;SDS011;29660;42.892;24.710;2022-11-14T18:43:03;89.15;;;53.67;;
44000;SDS011;29660;42.892;24.710;2022-11-14T18:48:23;78.85;;;46.47;;
44000;SDS011;29660;42.892;24.710;2022-11-14T18:53:43;92.32;;;61.95;;
44000;SDS011;29660;42.892;24.710;2022-11-14T18:59:04;75.85;;;48.53;;
44000;SDS011;29660;42.892;24.710;2022-11-14T19:04:26;82.35;;;49.03;;
44000;SDS011;29660;42.892;24.710;2022-11-14T19:09:46;52.63;;;34.22;;
44000;SDS011;29660;42.892;24.710;2022-11-14T19:15:07;54.17;;;35.80;;
44000;SDS011;29660;42.892;24.710;2022-11-14T19:20:29;58.50;;;38.22;;
44000;SDS011;29660;42.892;24.710;2022-11-14T19:25:50;69.68;;;46.67;;
44000;SDS011;29660;42.892;24.710;2022-11-14T19:31:10;64.53;;;42.15;;
44000;SDS011;29660;42.892;24.710;2022-11-14T19:36:31;55.22;;;34.42;;
44000;SDS011;29660;42.892;24.710;2022-11-14T19:42:11;46.45;;;32.00;;
44000;SDS011;29660;42.892;24.710;2022-11-14T19:47:33;46.95;;;30.98;;
44000;SDS011;29660;42.892;24.710;2022-11-14T19:52:56;42.00;;;28.38;;
44000;SDS011;29660;42.892;24.710;2022-11-14T19:58:25;42.53;;;27.50;;
44000;SDS011;29660;42.892;24.710;2022-11-14T20:03:55;38.38;;;26.40;;
44000;SDS011;29660;42.892;24.710;2022-11-14T20:09:20;35.70;;;24.02;;
44000;SDS011;29660;42.892;24.710;2022-11-14T20:14:41;49.28;;;32.50;;
44000;SDS011;29660;42.892;24.710;2022-11-14T20:20:01;46.65;;;31.05;;
44000;SDS011;29660;42.892;24.710;2022-11-14T20:25:21;49.30;;;34.10;;
44000;SDS011;29660;42.892;24.710;2022-11-14T20:30:42;56.53;;;39.72;;
44000;SDS011;29660;42.892;24.710;2022-11-14T20:36:06;42.92;;;27.45;;
44000;SDS011;29660;42.892;24.710;2022-11-14T20:41:29;41.10;;;27.65;;
44000;SDS011;29660;42.892;24.710;2022-11-14T20:46:50;35.33;;;24.58;;
44000;SDS011;29660;42.892;24.710;2022-11-14T20:52:10;31.02;;;20.73;;
44000;SDS011;29660;42.892;24.710;2022-11-14T20:57:31;38.63;;;26.92;;
44000;SDS011;29660;42.892;24.710;2022-11-14T21:02:56;37.58;;;24.08;;
44000;SDS011;29660;42.892;24.710;2022-11-14T21:08:17;35.80;;;25.17;;
44000;SDS011;29660;42.892;24.710;2022-11-14T21:13:38;36.70;;;25.42;;
44000;SDS011;29660;42.892;24.710;2022-11-14T21:19:18;41.08;;;27.92;;
44000;SDS011;29660;42.892;24.710;2022-11-14T21:24:38;50.72;;;32.30;;
44000;SDS011;29660;42.892;24.710;2022-11-14T21:29:59;52.70;;;39.95;;
44000;SDS011;29660;42.892;24.710;2022-11-14T21:35:19;45.90;;;32.47;;
44000;SDS011;29660;42.892;24.710;2022-11-14T21:40:39;33.72;;;25.10;;
44000;SDS011;29660;42.892;24.710;2022-11-14T21:46:00;37.20;;;25.70;;
44000;SDS011;29660;42.892;24.710;2022-11-14T21:51:23;49.92;;;35.80;;
44000;SDS011;29660;42.892;24.710;2022-11-14T21:56:45;41.88;;;30.52;;
44000;SDS011;29660;42.892;24.710;2022-11-14T22:02:08;35.15;;;24.35;;
44000;SDS011;29660;42.892;24.710;2022-11-14T22:07:49;47.60;;;32.78;;
44000;SDS011;29660;42.892;24.710;2022-11-14T22:13:09;39.30;;;26.33;;
44000;SDS011;29660;42.892;24.710;2022-11-14T22:18:30;31.63;;;22.48;;
44000;SDS011;29660;42.892;24.710;2022-11-14T22:23:54;30.63;;;21.60;;
44000;SDS011;29660;42.892;24.710;2022-11-14T22:29:14;36.95;;;26.08;;
44000;SDS011;29660;42.892;24.710;2022-11-14T22:34:35;32.80;;;24.92;;
44000;SDS011;29660;42.892;24.710;2022-11-14T22:39:55;36.72;;;25.83;;
44000;SDS011;29660;42.892;24.710;2022-11-14T22:45:15;37.03;;;24.63;;
44000;SDS011;29660;42.892;24.710;2022-11-14T22:50:35;27.65;;;19.17;;
44000;SDS011;29660;42.892;24.710;2022-11-14T22:55:56;27.75;;;20.20;;
44000;SDS011;29660;42.892;24.710;2022-11-14T23:01:18;27.40;;;19.88;;
44000;SDS011;29660;42.892;24.710;2022-11-14T23:06:40;22.52;;;16.63;;
44000;SDS011;29660;42.892;24.710;2022-11-14T23:12:01;22.60;;;16.88;;
44000;SDS011;29660;42.892;24.710;2022-11-14T23:17:21;23.83;;;18.15;;
44000;SDS011;29660;42.892;24.710;2022-11-14T23:22:42;21.52;;;16.02;;
44000;SDS011;29660;42.892;24.710;2022-11-14T23:28:02;21.42;;;15.93;;
44000;SDS011;29660;42.892;24.710;2022-11-14T23:33:23;18.63;;;14.57;;
44000;SDS011;29660;42.892;24.710;2022-11-14T23:38:44;24.40;;;17.20;;
44000;SDS011;29660;42.892;24.710;2022-11-14T23:44:04;17.23;;;12.75;;
44000;SDS011;29660;42.892;24.710;2022-11-14T23:49:24;17.52;;;11.80;;
44000;SDS011;29660;42.892;24.710;2022-11-14T23:54:44;21.60;;;15.23;;
